Terminal Aerodrome Forecast
Issued by NWS

Current Version | Previous Version | Text Only | Print | Product List | Glossary On
Versions: 1 2 3 4 5 6 7 8 9 10 11 12 13 14 15 16 17 18 19
000
FTUS46 KLOX 020500
TAFSBP
TAF
KSBP 020520Z 0206/0306 32008KT P6SM SKC
     FM021600 31015KT P6SM SKC
     FM022000 31020G30KT P6SM SKC
     FM030300 31010KT P6SM SKC=

USA.gov is the U.S. government's official web portal to all federal, state and local government web resources and services.